SAS1765 EVRA-ESSA
Flight info
| Callsign | SAS1765 |
|---|---|
| Flight time | 0h 50m |
| Altitude | 32000 |
| Route | LAPSA DCT LATEG DCT TOMBU N616 XILAN |
| Aircraft | MD82/M-SDFGIRWY/S |
Departure
| Time | 2026-05-05 05:09 |
|---|---|
| Airport | Riga International Airport (EVRA) |
Arrival
| Time | 2026-05-05 05:59 |
|---|---|
| Airport | Stockholm-Arlanda Airport (ESSA) |
| Time | Latitude | Longitude | Altitude | Speed | Heading |
|---|---|---|---|---|---|
| 2026-05-05 04:44 | 56.92193 | 23.97583 | 45 ft | 0 kts | 5° |
| 2026-05-05 05:05 | 56.92194 | 23.97582 | 45 ft | 0 kts | 356° |
| 2026-05-05 05:05 | 56.92195 | 23.97581 | 40 ft | 0 kts | 339° |
| 2026-05-05 05:06 | 56.92200 | 23.97564 | 42 ft | 2 kts | 288° |
| 2026-05-05 05:06 | 56.92207 | 23.97528 | 44 ft | 5 kts | 288° |
| 2026-05-05 05:06 | 56.92256 | 23.97485 | 42 ft | 13 kts | 355° |
| 2026-05-05 05:06 | 56.92377 | 23.97507 | 45 ft | 20 kts | 8° |
| 2026-05-05 05:07 | 56.92514 | 23.97534 | 45 ft | 20 kts | 5° |
| 2026-05-05 05:07 | 56.92656 | 23.97556 | 45 ft | 20 kts | 5° |
| 2026-05-05 05:07 | 56.92797 | 23.97580 | 43 ft | 21 kts | 5° |
| 2026-05-05 05:07 | 56.92936 | 23.97564 | 45 ft | 20 kts | 317° |
| 2026-05-05 05:08 | 56.92961 | 23.97344 | 45 ft | 17 kts | 274° |
| 2026-05-05 05:08 | 56.92899 | 23.97204 | 45 ft | 16 kts | 196° |
| 2026-05-05 05:08 | 56.92719 | 23.97174 | 45 ft | 45 kts | 185° |
| 2026-05-05 05:08 | 56.92188 | 23.97084 | 46 ft | 108 kts | 185° |
| 2026-05-05 05:09 | 56.91246 | 23.96922 | 88 ft | 157 kts | 185° |
| 2026-05-05 05:09 | 56.90179 | 23.96709 | 765 ft | 154 kts | 189° |
| 2026-05-05 05:09 | 56.89104 | 23.96539 | 1482 ft | 159 kts | 189° |
| 2026-05-05 05:09 | 56.87986 | 23.96388 | 2164 ft | 163 kts | 189° |
| 2026-05-05 05:10 | 56.86851 | 23.96234 | 2897 ft | 166 kts | 190° |
| 2026-05-05 05:10 | 56.85619 | 23.96013 | 3263 ft | 189 kts | 197° |
| 2026-05-05 05:10 | 56.84513 | 23.94943 | 3703 ft | 195 kts | 234° |
| 2026-05-05 05:10 | 56.83750 | 23.92904 | 4493 ft | 193 kts | 237° |
| 2026-05-05 05:11 | 56.82913 | 23.90843 | 4992 ft | 213 kts | 235° |
| 2026-05-05 05:11 | 56.81949 | 23.88592 | 5350 ft | 235 kts | 234° |
| 2026-05-05 05:11 | 56.80899 | 23.86181 | 5851 ft | 250 kts | 233° |
| 2026-05-05 05:11 | 56.79804 | 23.83687 | 6584 ft | 254 kts | 233° |
| 2026-05-05 05:12 | 56.78690 | 23.81155 | 7383 ft | 256 kts | 234° |
| 2026-05-05 05:12 | 56.77878 | 23.78301 | 8123 ft | 256 kts | 260° |
| 2026-05-05 05:12 | 56.78027 | 23.75085 | 8860 ft | 261 kts | 290° |
| 2026-05-05 05:12 | 56.79017 | 23.72313 | 9608 ft | 268 kts | 305° |
| 2026-05-05 05:13 | 56.80245 | 23.69688 | 10110 ft | 279 kts | 307° |
| 2026-05-05 05:13 | 56.81592 | 23.66936 | 10279 ft | 301 kts | 308° |
| 2026-05-05 05:13 | 56.83075 | 23.64051 | 10468 ft | 320 kts | 310° |
| 2026-05-05 05:13 | 56.84637 | 23.61104 | 10837 ft | 330 kts | 310° |
| 2026-05-05 05:14 | 56.86245 | 23.58094 | 11486 ft | 331 kts | 310° |
| 2026-05-05 05:14 | 56.87852 | 23.55064 | 12157 ft | 332 kts | 309° |
| 2026-05-05 05:14 | 56.89460 | 23.51997 | 12830 ft | 333 kts | 309° |
| 2026-05-05 05:14 | 56.91053 | 23.48920 | 13469 ft | 336 kts | 308° |
| 2026-05-05 05:15 | 56.92663 | 23.45779 | 14025 ft | 338 kts | 308° |
| 2026-05-05 05:15 | 56.94258 | 23.42640 | 14553 ft | 341 kts | 308° |
| 2026-05-05 05:15 | 56.95887 | 23.39422 | 15087 ft | 344 kts | 308° |
| 2026-05-05 05:15 | 56.97501 | 23.36229 | 15647 ft | 346 kts | 308° |
| 2026-05-05 05:16 | 56.99149 | 23.32968 | 16180 ft | 349 kts | 308° |
| 2026-05-05 05:16 | 57.00796 | 23.29708 | 16701 ft | 353 kts | 308° |
| 2026-05-05 05:16 | 57.02476 | 23.26386 | 17220 ft | 356 kts | 308° |
| 2026-05-05 05:16 | 57.04168 | 23.23040 | 17774 ft | 358 kts | 308° |
| 2026-05-05 05:17 | 57.05876 | 23.19658 | 18268 ft | 361 kts | 308° |
| 2026-05-05 05:17 | 57.07566 | 23.16283 | 18720 ft | 364 kts | 307° |
| 2026-05-05 05:17 | 57.09274 | 23.12850 | 19196 ft | 366 kts | 307° |
| 2026-05-05 05:17 | 57.11004 | 23.09368 | 19647 ft | 369 kts | 308° |
| 2026-05-05 05:18 | 57.12752 | 23.05853 | 20123 ft | 371 kts | 308° |
| 2026-05-05 05:18 | 57.14494 | 23.02357 | 20597 ft | 374 kts | 308° |
| 2026-05-05 05:18 | 57.16249 | 22.98838 | 21040 ft | 377 kts | 308° |
| 2026-05-05 05:18 | 57.18035 | 22.95254 | 21494 ft | 380 kts | 308° |
| 2026-05-05 05:19 | 57.19837 | 22.91639 | 21942 ft | 383 kts | 308° |
| 2026-05-05 05:19 | 57.21631 | 22.88037 | 22360 ft | 386 kts | 308° |
| 2026-05-05 05:19 | 57.23458 | 22.84367 | 22834 ft | 389 kts | 308° |
| 2026-05-05 05:19 | 57.25306 | 22.80650 | 23253 ft | 392 kts | 308° |
| 2026-05-05 05:20 | 57.27144 | 22.76947 | 23618 ft | 395 kts | 308° |
| 2026-05-05 05:20 | 57.29014 | 22.73180 | 23998 ft | 397 kts | 308° |
| 2026-05-05 05:20 | 57.30872 | 22.69434 | 24394 ft | 399 kts | 308° |
| 2026-05-05 05:20 | 57.32750 | 22.65644 | 24782 ft | 400 kts | 308° |
| 2026-05-05 05:21 | 57.34806 | 22.62141 | 25163 ft | 409 kts | 319° |
| 2026-05-05 05:21 | 57.37177 | 22.59151 | 25563 ft | 413 kts | 322° |
| 2026-05-05 05:21 | 57.39625 | 22.56286 | 25907 ft | 416 kts | 322° |
| 2026-05-05 05:21 | 57.42067 | 22.53458 | 26253 ft | 418 kts | 322° |
| 2026-05-05 05:22 | 57.44560 | 22.50559 | 26609 ft | 421 kts | 322° |
| 2026-05-05 05:22 | 57.47004 | 22.47686 | 26980 ft | 422 kts | 322° |
| 2026-05-05 05:22 | 57.49478 | 22.44736 | 27336 ft | 424 kts | 322° |
| 2026-05-05 05:22 | 57.51970 | 22.41725 | 27659 ft | 427 kts | 321° |
| 2026-05-05 05:23 | 57.54466 | 22.38683 | 28031 ft | 428 kts | 321° |
| 2026-05-05 05:23 | 57.56931 | 22.35669 | 28483 ft | 428 kts | 321° |
| 2026-05-05 05:23 | 57.59416 | 22.32631 | 29040 ft | 425 kts | 321° |
| 2026-05-05 05:23 | 57.61894 | 22.29601 | 29590 ft | 422 kts | 321° |
| 2026-05-05 05:24 | 57.64322 | 22.26629 | 30059 ft | 421 kts | 321° |
| 2026-05-05 05:24 | 57.66772 | 22.23624 | 30481 ft | 419 kts | 321° |
| 2026-05-05 05:24 | 57.69214 | 22.20627 | 30839 ft | 418 kts | 321° |
| 2026-05-05 05:24 | 57.71620 | 22.17665 | 31168 ft | 418 kts | 321° |
| 2026-05-05 05:25 | 57.74053 | 22.14661 | 31493 ft | 417 kts | 321° |
| 2026-05-05 05:25 | 57.76465 | 22.11677 | 31663 ft | 420 kts | 321° |
| 2026-05-05 05:25 | 57.78828 | 22.08438 | 31746 ft | 421 kts | 315° |
| 2026-05-05 05:26 | 57.83244 | 22.01033 | 31801 ft | 431 kts | 312° |
| 2026-05-05 05:26 | 57.87693 | 21.93388 | 31813 ft | 432 kts | 313° |
| 2026-05-05 05:27 | 57.92130 | 21.85939 | 31815 ft | 429 kts | 313° |
| 2026-05-05 05:27 | 57.98849 | 21.74800 | 31816 ft | 429 kts | 313° |
| 2026-05-05 05:28 | 58.03308 | 21.67366 | 31840 ft | 429 kts | 312° |
| 2026-05-05 05:28 | 58.07791 | 21.59880 | 31809 ft | 427 kts | 312° |
| 2026-05-05 05:29 | 58.12186 | 21.52452 | 31800 ft | 425 kts | 311° |
| 2026-05-05 05:29 | 58.16577 | 21.44950 | 31799 ft | 426 kts | 312° |
| 2026-05-05 05:30 | 58.21002 | 21.37428 | 31806 ft | 425 kts | 311° |
| 2026-05-05 05:30 | 58.25365 | 21.30014 | 31800 ft | 421 kts | 311° |
| 2026-05-05 05:31 | 58.29733 | 21.22553 | 31789 ft | 422 kts | 311° |
| 2026-05-05 05:31 | 58.34100 | 21.15075 | 31788 ft | 423 kts | 311° |
| 2026-05-05 05:32 | 58.38468 | 21.07583 | 31788 ft | 424 kts | 311° |
| 2026-05-05 05:32 | 58.42829 | 21.00046 | 31788 ft | 424 kts | 311° |
| 2026-05-05 05:33 | 58.47189 | 20.92462 | 31808 ft | 420 kts | 310° |
| 2026-05-05 05:33 | 58.51454 | 20.85032 | 31783 ft | 414 kts | 310° |
| 2026-05-05 05:34 | 58.55716 | 20.77567 | 31776 ft | 417 kts | 310° |
| 2026-05-05 05:34 | 58.60013 | 20.70041 | 31777 ft | 418 kts | 310° |
| 2026-05-05 05:35 | 58.64282 | 20.62563 | 31767 ft | 418 kts | 310° |
| 2026-05-05 05:35 | 58.68589 | 20.55000 | 31770 ft | 419 kts | 310° |
| 2026-05-05 05:36 | 58.72897 | 20.47402 | 31778 ft | 418 kts | 309° |
| 2026-05-05 05:36 | 58.77150 | 20.39787 | 31769 ft | 416 kts | 309° |
| 2026-05-05 05:37 | 58.81368 | 20.32228 | 31760 ft | 417 kts | 309° |
| 2026-05-05 05:37 | 58.85618 | 20.24626 | 31761 ft | 418 kts | 309° |
| 2026-05-05 05:38 | 58.89896 | 20.16976 | 31782 ft | 418 kts | 309° |
| 2026-05-05 05:38 | 58.94106 | 20.09426 | 31768 ft | 415 kts | 308° |
| 2026-05-05 05:39 | 58.98342 | 20.01803 | 31775 ft | 414 kts | 308° |
| 2026-05-05 05:39 | 59.02520 | 19.94226 | 31729 ft | 407 kts | 308° |
| 2026-05-05 05:40 | 59.04548 | 19.90486 | 31212 ft | 399 kts | 308° |
| 2026-05-05 05:40 | 59.06548 | 19.86786 | 30654 ft | 393 kts | 308° |
| 2026-05-05 05:40 | 59.08516 | 19.83154 | 29931 ft | 391 kts | 308° |
| 2026-05-05 05:40 | 59.10492 | 19.79532 | 29192 ft | 388 kts | 308° |
| 2026-05-05 05:41 | 59.12451 | 19.75952 | 28139 ft | 391 kts | 308° |
| 2026-05-05 05:41 | 59.14473 | 19.72251 | 27528 ft | 401 kts | 308° |
| 2026-05-05 05:41 | 59.16515 | 19.68538 | 27191 ft | 402 kts | 308° |
| 2026-05-05 05:41 | 59.18556 | 19.64834 | 26801 ft | 407 kts | 309° |
| 2026-05-05 05:42 | 59.20653 | 19.61035 | 26437 ft | 407 kts | 309° |
| 2026-05-05 05:42 | 59.22611 | 19.57280 | 26074 ft | 387 kts | 300° |
| 2026-05-05 05:42 | 59.23946 | 19.52912 | 25616 ft | 363 kts | 288° |
| 2026-05-05 05:42 | 59.24937 | 19.48456 | 24790 ft | 361 kts | 286° |
| 2026-05-05 05:43 | 59.25892 | 19.43941 | 24338 ft | 352 kts | 286° |
| 2026-05-05 05:43 | 59.26821 | 19.39572 | 24019 ft | 340 kts | 286° |
| 2026-05-05 05:43 | 59.27705 | 19.35397 | 23528 ft | 334 kts | 284° |
| 2026-05-05 05:43 | 59.28411 | 19.31103 | 22883 ft | 328 kts | 280° |
| 2026-05-05 05:44 | 59.28982 | 19.26801 | 22236 ft | 323 kts | 278° |
| 2026-05-05 05:44 | 59.29501 | 19.22595 | 21590 ft | 320 kts | 278° |
| 2026-05-05 05:44 | 59.30008 | 19.18340 | 20950 ft | 317 kts | 278° |
| 2026-05-05 05:44 | 59.30498 | 19.14127 | 20170 ft | 319 kts | 278° |
| 2026-05-05 05:45 | 59.30973 | 19.09955 | 19578 ft | 316 kts | 278° |
| 2026-05-05 05:45 | 59.31447 | 19.05741 | 18897 ft | 315 kts | 278° |
| 2026-05-05 05:45 | 59.31908 | 19.01557 | 18302 ft | 312 kts | 276° |
| 2026-05-05 05:45 | 59.32154 | 18.97404 | 17650 ft | 307 kts | 270° |
| 2026-05-05 05:46 | 59.32241 | 18.93251 | 16995 ft | 303 kts | 269° |
| 2026-05-05 05:46 | 59.32285 | 18.89129 | 16367 ft | 300 kts | 268° |
| 2026-05-05 05:46 | 59.32310 | 18.85091 | 15738 ft | 297 kts | 268° |
| 2026-05-05 05:46 | 59.32322 | 18.81051 | 15110 ft | 295 kts | 268° |
| 2026-05-05 05:47 | 59.32327 | 18.77084 | 14522 ft | 292 kts | 268° |
| 2026-05-05 05:47 | 59.32326 | 18.73120 | 13918 ft | 290 kts | 267° |
| 2026-05-05 05:47 | 59.32320 | 18.69179 | 13297 ft | 287 kts | 267° |
| 2026-05-05 05:47 | 59.32316 | 18.66594 | 12906 ft | 285 kts | 267° |
| 2026-05-05 05:48 | 59.32309 | 18.61468 | 12026 ft | 283 kts | 267° |
| 2026-05-05 05:48 | 59.32302 | 18.57608 | 11369 ft | 282 kts | 267° |
| 2026-05-05 05:48 | 59.32298 | 18.55067 | 10996 ft | 280 kts | 267° |
| 2026-05-05 05:48 | 59.32293 | 18.51269 | 10445 ft | 277 kts | 267° |
| 2026-05-05 05:49 | 59.32289 | 18.47512 | 9900 ft | 273 kts | 267° |
| 2026-05-05 05:49 | 59.32285 | 18.43808 | 9407 ft | 268 kts | 267° |
| 2026-05-05 05:49 | 59.32279 | 18.40247 | 8969 ft | 261 kts | 268° |
| 2026-05-05 05:49 | 59.32266 | 18.36732 | 8541 ft | 254 kts | 268° |
| 2026-05-05 05:50 | 59.32243 | 18.33307 | 8134 ft | 249 kts | 268° |
| 2026-05-05 05:50 | 59.32203 | 18.29953 | 7743 ft | 243 kts | 268° |
| 2026-05-05 05:50 | 59.32151 | 18.26659 | 7358 ft | 239 kts | 268° |
| 2026-05-05 05:50 | 59.32084 | 18.23459 | 6979 ft | 236 kts | 268° |
| 2026-05-05 05:51 | 59.32006 | 18.20262 | 6603 ft | 234 kts | 268° |
| 2026-05-05 05:51 | 59.31918 | 18.17120 | 6265 ft | 228 kts | 268° |
| 2026-05-05 05:51 | 59.31822 | 18.14079 | 6004 ft | 220 kts | 267° |
| 2026-05-05 05:51 | 59.31725 | 18.11151 | 5802 ft | 211 kts | 269° |
| 2026-05-05 05:52 | 59.31885 | 18.08347 | 5660 ft | 207 kts | 283° |
| 2026-05-05 05:52 | 59.32283 | 18.05639 | 5542 ft | 207 kts | 286° |
| 2026-05-05 05:52 | 59.32714 | 18.02956 | 5407 ft | 207 kts | 286° |
| 2026-05-05 05:52 | 59.33154 | 18.00273 | 5274 ft | 206 kts | 287° |
| 2026-05-05 05:53 | 59.33672 | 17.97692 | 5136 ft | 208 kts | 303° |
| 2026-05-05 05:53 | 59.34825 | 17.95934 | 5057 ft | 216 kts | 327° |
| 2026-05-05 05:53 | 59.36200 | 17.94672 | 4886 ft | 219 kts | 330° |
| 2026-05-05 05:53 | 59.37596 | 17.93456 | 4680 ft | 218 kts | 331° |
| 2026-05-05 05:54 | 59.38988 | 17.92284 | 4466 ft | 217 kts | 332° |
| 2026-05-05 05:54 | 59.40381 | 17.91151 | 4247 ft | 216 kts | 332° |
| 2026-05-05 05:54 | 59.41764 | 17.90039 | 4121 ft | 213 kts | 333° |
| 2026-05-05 05:54 | 59.43131 | 17.88947 | 4067 ft | 212 kts | 335° |
| 2026-05-05 05:55 | 59.44628 | 17.88721 | 3957 ft | 230 kts | 7° |
| 2026-05-05 05:55 | 59.46182 | 17.89388 | 3614 ft | 230 kts | 4° |
| 2026-05-05 05:55 | 59.47754 | 17.89806 | 3284 ft | 224 kts | 2° |
| 2026-05-05 05:55 | 59.49258 | 17.90296 | 2966 ft | 215 kts | 6° |
| 2026-05-05 05:56 | 59.50703 | 17.90787 | 2594 ft | 207 kts | 5° |
| 2026-05-05 05:56 | 59.52075 | 17.91277 | 2268 ft | 193 kts | 6° |
| 2026-05-05 05:56 | 59.53356 | 17.91724 | 1975 ft | 180 kts | 7° |
| 2026-05-05 05:56 | 59.54534 | 17.92159 | 1780 ft | 166 kts | 7° |
| 2026-05-05 05:57 | 59.55614 | 17.92549 | 1619 ft | 151 kts | 6° |
| 2026-05-05 05:57 | 59.56612 | 17.92918 | 1391 ft | 145 kts | 6° |
| 2026-05-05 05:57 | 59.57602 | 17.93254 | 1180 ft | 142 kts | 4° |
| 2026-05-05 05:57 | 59.58577 | 17.93558 | 938 ft | 142 kts | 7° |
| 2026-05-05 05:58 | 59.59543 | 17.93953 | 750 ft | 142 kts | 6° |
| 2026-05-05 05:58 | 59.60509 | 17.94319 | 566 ft | 139 kts | 5° |
| 2026-05-05 05:58 | 59.61439 | 17.94646 | 386 ft | 134 kts | 6° |
| 2026-05-05 05:58 | 59.62356 | 17.94982 | 229 ft | 133 kts | 9° |
| 2026-05-05 05:59 | 59.63252 | 17.95294 | 128 ft | 122 kts | 7° |
| 2026-05-05 05:59 | 59.63909 | 17.95539 | 115 ft | 73 kts | 11° |
| 2026-05-05 05:59 | 59.64277 | 17.95671 | 112 ft | 49 kts | 9° |
| 2026-05-05 05:59 | 59.64535 | 17.95662 | 109 ft | 30 kts | 346° |
| 2026-05-05 06:00 | 59.64731 | 17.95532 | 107 ft | 29 kts | 341° |
| 2026-05-05 06:00 | 59.64922 | 17.95493 | 110 ft | 27 kts | 12° |
| 2026-05-05 06:00 | 59.65092 | 17.95490 | 116 ft | 23 kts | 345° |
| 2026-05-05 06:00 | 59.65234 | 17.95416 | 121 ft | 19 kts | 345° |
| 2026-05-05 06:01 | 59.65351 | 17.95353 | 126 ft | 16 kts | 345° |
| 2026-05-05 06:01 | 59.65459 | 17.95295 | 125 ft | 17 kts | 345° |
| 2026-05-05 06:01 | 59.65586 | 17.95229 | 129 ft | 21 kts | 345° |
| 2026-05-05 06:01 | 59.65719 | 17.95134 | 124 ft | 21 kts | 317° |
| 2026-05-05 06:02 | 59.65729 | 17.94856 | 121 ft | 22 kts | 256° |
| 2026-05-05 06:02 | 59.65692 | 17.94565 | 122 ft | 22 kts | 256° |
| 2026-05-05 06:02 | 59.65656 | 17.94277 | 123 ft | 22 kts | 256° |
| 2026-05-05 06:02 | 59.65617 | 17.93974 | 115 ft | 25 kts | 256° |
| 2026-05-05 06:03 | 59.65572 | 17.93620 | 113 ft | 27 kts | 256° |
| 2026-05-05 06:03 | 59.65528 | 17.93377 | 113 ft | 14 kts | 218° |
| 2026-05-05 06:03 | 59.65431 | 17.93356 | 112 ft | 15 kts | 168° |
| 2026-05-05 06:03 | 59.65356 | 17.93397 | 112 ft | 7 kts | 146° |
| 2026-05-05 06:04 | 59.65350 | 17.93482 | 112 ft | 4 kts | 75° |
| 2026-05-05 06:04 | 59.65356 | 17.93523 | 112 ft | 2 kts | 75° |
| 2026-05-05 06:04 | 59.65356 | 17.93525 | 112 ft | 0 kts | 75° |